sensor_id;sensor_type;location;lat;lon;timestamp;temperature;humidity
71672;DHT22;67659;45.554;11.812;2023-08-20T19:42:22;30.30;99.90
71672;DHT22;67659;45.554;11.812;2023-08-20T19:44:48;30.20;99.90
71672;DHT22;67659;45.554;11.812;2023-08-20T19:47:15;30.10;99.90
71672;DHT22;67659;45.554;11.812;2023-08-20T19:49:41;30.10;99.90
71672;DHT22;67659;45.554;11.812;2023-08-20T19:52:07;30.00;99.90
71672;DHT22;67659;45.554;11.812;2023-08-20T19:54:32;30.00;99.90
71672;DHT22;67659;45.554;11.812;2023-08-20T19:56:58;30.10;99.90
71672;DHT22;67659;45.554;11.812;2023-08-20T19:59:24;30.00;99.90
71672;DHT22;67659;45.554;11.812;2023-08-20T20:01:52;30.00;99.90
71672;DHT22;67659;45.554;11.812;2023-08-20T20:04:18;30.00;99.90
71672;DHT22;67659;45.554;11.812;2023-08-20T20:06:44;30.00;99.90
71672;DHT22;67659;45.554;11.812;2023-08-20T20:09:11;29.90;99.90
71672;DHT22;67659;45.554;11.812;2023-08-20T20:11:37;29.80;99.90
71672;DHT22;67659;45.554;11.812;2023-08-20T20:14:04;29.80;99.90
71672;DHT22;67659;45.554;11.812;2023-08-20T20:16:30;29.80;99.90
71672;DHT22;67659;45.554;11.812;2023-08-20T20:18:56;29.70;99.90
71672;DHT22;67659;45.554;11.812;2023-08-20T20:21:22;29.60;99.90
71672;DHT22;67659;45.554;11.812;2023-08-20T20:23:50;29.60;99.90
71672;DHT22;67659;45.554;11.812;2023-08-20T20:26:16;29.50;99.90
71672;DHT22;67659;45.554;11.812;2023-08-20T20:28:45;29.40;99.90
71672;DHT22;67659;45.554;11.812;2023-08-20T20:31:11;29.40;99.90
71672;DHT22;67659;45.554;11.812;2023-08-20T20:33:37;29.50;99.90
71672;DHT22;67659;45.554;11.812;2023-08-20T20:36:03;29.50;99.90
71672;DHT22;67659;45.554;11.812;2023-08-20T20:38:29;29.50;99.90
71672;DHT22;67659;45.554;11.812;2023-08-20T20:40:55;29.40;99.90
71672;DHT22;67659;45.554;11.812;2023-08-20T20:43:21;29.40;99.90
71672;DHT22;67659;45.554;11.812;2023-08-20T20:45:52;29.40;99.90
71672;DHT22;67659;45.554;11.812;2023-08-20T20:48:18;29.40;99.90
71672;DHT22;67659;45.554;11.812;2023-08-20T20:50:46;29.30;99.90
71672;DHT22;67659;45.554;11.812;2023-08-20T20:53:13;29.30;99.90
71672;DHT22;67659;45.554;11.812;2023-08-20T20:55:39;29.20;99.90
71672;DHT22;67659;45.554;11.812;2023-08-20T20:58:06;29.30;99.90
71672;DHT22;67659;45.554;11.812;2023-08-20T21:00:32;29.10;99.90
71672;DHT22;67659;45.554;11.812;2023-08-20T21:02:58;29.10;99.90
71672;DHT22;67659;45.554;11.812;2023-08-20T21:05:24;29.10;99.90
71672;DHT22;67659;45.554;11.812;2023-08-20T21:07:49;29.10;99.90
71672;DHT22;67659;45.554;11.812;2023-08-20T21:10:16;29.10;99.90
71672;DHT22;67659;45.554;11.812;2023-08-20T21:12:42;29.00;99.90
71672;DHT22;67659;45.554;11.812;2023-08-20T21:15:08;29.10;99.90
71672;DHT22;67659;45.554;11.812;2023-08-20T21:17:34;29.10;99.90
71672;DHT22;67659;45.554;11.812;2023-08-20T21:20:02;29.00;99.90
71672;DHT22;67659;45.554;11.812;2023-08-20T21:22:29;29.00;99.90
71672;DHT22;67659;45.554;11.812;2023-08-20T21:24:55;29.00;99.90
71672;DHT22;67659;45.554;11.812;2023-08-20T21:27:21;29.00;99.90
71672;DHT22;67659;45.554;11.812;2023-08-20T21:29:47;28.90;99.90
71672;DHT22;67659;45.554;11.812;2023-08-20T21:32:13;28.90;99.90
71672;DHT22;67659;45.554;11.812;2023-08-20T21:34:38;28.90;99.90
71672;DHT22;67659;45.554;11.812;2023-08-20T21:37:04;28.80;99.90
71672;DHT22;67659;45.554;11.812;2023-08-20T21:39:30;28.70;99.90
71672;DHT22;67659;45.554;11.812;2023-08-20T21:41:56;28.70;99.90
71672;DHT22;67659;45.554;11.812;2023-08-20T21:44:22;28.60;99.90
71672;DHT22;67659;45.554;11.812;2023-08-20T21:46:52;28.40;99.90
71672;DHT22;67659;45.554;11.812;2023-08-20T21:49:18;28.50;99.90
71672;DHT22;67659;45.554;11.812;2023-08-20T21:51:49;28.50;99.90
71672;DHT22;67659;45.554;11.812;2023-08-20T21:54:16;28.40;99.90
71672;DHT22;67659;45.554;11.812;2023-08-20T21:56:42;28.40;99.90
71672;DHT22;67659;45.554;11.812;2023-08-20T21:59:07;28.50;99.90
71672;DHT22;67659;45.554;11.812;2023-08-20T22:01:33;28.50;99.90
71672;DHT22;67659;45.554;11.812;2023-08-20T22:03:59;28.50;99.90
71672;DHT22;67659;45.554;11.812;2023-08-20T22:06:25;28.50;99.90
71672;DHT22;67659;45.554;11.812;2023-08-20T22:08:51;28.40;99.90
71672;DHT22;67659;45.554;11.812;2023-08-20T22:11:16;28.40;99.90
71672;DHT22;67659;45.554;11.812;2023-08-20T22:13:42;28.40;99.90
71672;DHT22;67659;45.554;11.812;2023-08-20T22:16:08;28.20;99.90
71672;DHT22;67659;45.554;11.812;2023-08-20T22:18:34;28.20;99.90
71672;DHT22;67659;45.554;11.812;2023-08-20T22:21:00;28.20;99.90
71672;DHT22;67659;45.554;11.812;2023-08-20T22:23:26;28.20;99.90
71672;DHT22;67659;45.554;11.812;2023-08-20T22:25:52;28.20;99.90
71672;DHT22;67659;45.554;11.812;2023-08-20T22:28:18;28.20;99.90
71672;DHT22;67659;45.554;11.812;2023-08-20T22:30:44;28.10;99.90
71672;DHT22;67659;45.554;11.812;2023-08-20T22:33:10;28.00;99.90
71672;DHT22;67659;45.554;11.812;2023-08-20T22:35:35;28.00;99.90
71672;DHT22;67659;45.554;11.812;2023-08-20T22:38:10;28.00;99.90
71672;DHT22;67659;45.554;11.812;2023-08-20T22:40:38;28.00;99.90
71672;DHT22;67659;45.554;11.812;2023-08-20T22:43:05;28.00;99.90
71672;DHT22;67659;45.554;11.812;2023-08-20T22:45:31;28.10;99.90
71672;DHT22;67659;45.554;11.812;2023-08-20T22:47:58;28.10;99.90
71672;DHT22;67659;45.554;11.812;2023-08-20T22:50:24;27.90;99.90
71672;DHT22;67659;45.554;11.812;2023-08-20T22:52:50;27.90;99.90
71672;DHT22;67659;45.554;11.812;2023-08-20T22:55:16;27.80;99.90
71672;DHT22;67659;45.554;11.812;2023-08-20T22:57:42;27.90;99.90
71672;DHT22;67659;45.554;11.812;2023-08-20T23:00:09;27.90;99.90
71672;DHT22;67659;45.554;11.812;2023-08-20T23:02:38;27.80;99.90
71672;DHT22;67659;45.554;11.812;2023-08-20T23:05:04;27.70;99.90
71672;DHT22;67659;45.554;11.812;2023-08-20T23:07:30;27.80;99.90
71672;DHT22;67659;45.554;11.812;2023-08-20T23:09:56;27.80;99.90
71672;DHT22;67659;45.554;11.812;2023-08-20T23:12:23;27.90;99.90
71672;DHT22;67659;45.554;11.812;2023-08-20T23:14:49;27.90;99.90
71672;DHT22;67659;45.554;11.812;2023-08-20T23:17:15;27.80;99.90
71672;DHT22;67659;45.554;11.812;2023-08-20T23:19:46;27.80;99.90
71672;DHT22;67659;45.554;11.812;2023-08-20T23:22:13;27.70;99.90
71672;DHT22;67659;45.554;11.812;2023-08-20T23:24:39;27.70;99.90
71672;DHT22;67659;45.554;11.812;2023-08-20T23:27:05;27.70;99.90
71672;DHT22;67659;45.554;11.812;2023-08-20T23:29:31;27.70;99.90
71672;DHT22;67659;45.554;11.812;2023-08-20T23:31:57;27.70;99.90
71672;DHT22;67659;45.554;11.812;2023-08-20T23:34:23;27.60;99.90
71672;DHT22;67659;45.554;11.812;2023-08-20T23:36:49;27.60;99.90
71672;DHT22;67659;45.554;11.812;2023-08-20T23:39:15;27.60;99.90
71672;DHT22;67659;45.554;11.812;2023-08-20T23:41:43;27.60;99.90
71672;DHT22;67659;45.554;11.812;2023-08-20T23:44:09;27.60;99.90
71672;DHT22;67659;45.554;11.812;2023-08-20T23:46:35;27.60;99.90
71672;DHT22;67659;45.554;11.812;2023-08-20T23:49:01;27.60;99.90
71672;DHT22;67659;45.554;11.812;2023-08-20T23:51:27;27.60;99.90
71672;DHT22;67659;45.554;11.812;2023-08-20T23:53:53;27.50;99.90
71672;DHT22;67659;45.554;11.812;2023-08-20T23:56:19;27.60;99.90
71672;DHT22;67659;45.554;11.812;2023-08-20T23:58:44;27.50;99.90
